Time;durP1;ratioP1;P1;durP2;ratioP2;P2;SDS_P1;SDS_P2;PMS_P1;PMS_P2;Temp;Humidity;BMP_temperature;BMP_pressure;BME280_temperature;BME280_humidity;BME280_pressure;Samples;Min_cycle;Max_cycle;Signal;HPM_P1;HPM_P2
2023/09/05 00:02:03;;;;;;;5.85;4.05;;;;;;;16.59;64.65;101503.59;5091963;28;20205;-60
2023/09/05 00:04:31;;;;;;;10.35;4.13;;;;;;;16.55;65.10;101502.78;5091509;28;20200;-59
2023/09/05 00:06:59;;;;;;;6.75;4.53;;;;;;;16.53;65.07;101506.28;5084391;28;20208;-58
2023/09/05 00:09:28;;;;;;;11.13;5.00;;;;;;;16.49;64.57;101512.41;5093917;28;20585;-60
2023/09/05 00:11:56;;;;;;;9.98;4.78;;;;;;;16.43;64.78;101510.75;5085204;28;20201;-59
2023/09/05 00:14:24;;;;;;;9.75;5.35;;;;;;;16.40;64.94;101514.25;5091393;28;20236;-60
2023/09/05 00:16:52;;;;;;;7.10;4.70;;;;;;;16.39;65.25;101517.72;5089066;28;20649;-61
2023/09/05 00:19:20;;;;;;;9.30;4.97;;;;;;;16.40;65.28;101516.84;5085079;28;20257;-60
2023/09/05 00:21:48;;;;;;;10.98;4.43;;;;;;;16.41;65.43;101515.09;5090575;28;20565;-61
2023/09/05 00:24:31;;;;;;;7.65;4.25;;;;;;;16.39;65.58;101509.06;5088013;28;20207;-59
2023/09/05 00:27:00;;;;;;;6.82;4.05;;;;;;;16.38;65.85;101518.59;5087372;28;20211;-60
2023/09/05 00:29:30;;;;;;;8.52;5.35;;;;;;;16.36;65.57;101509.97;5086295;28;20700;-59
2023/09/05 00:31:59;;;;;;;8.50;4.63;;;;;;;16.35;66.01;101512.59;5088307;28;20209;-60
2023/09/05 00:34:28;;;;;;;8.20;4.28;;;;;;;16.34;65.95;101514.31;5091685;28;20201;-56
2023/09/05 00:36:58;;;;;;;7.00;4.75;;;;;;;16.31;65.96;101518.69;5086238;28;20710;-59
2023/09/05 00:39:27;;;;;;;8.10;4.65;;;;;;;16.29;66.03;101504.84;5088490;28;20251;-63
2023/09/05 00:41:56;;;;;;;7.65;4.65;;;;;;;16.29;65.52;101510.91;5089076;28;20201;-60
2023/09/05 00:44:24;;;;;;;8.20;4.68;;;;;;;16.27;65.99;101507.44;5088864;28;20635;-58
2023/09/05 00:46:54;;;;;;;7.32;4.68;;;;;;;16.28;65.86;101505.72;5084713;28;20275;-58
2023/09/05 00:49:27;;;;;;;7.53;4.50;;;;;;;16.26;65.93;101505.72;5088762;28;20200;-56
2023/09/05 00:51:57;;;;;;;11.88;5.03;;;;;;;16.25;65.86;101497.97;5079753;28;20201;-58
2023/09/05 00:54:25;;;;;;;13.48;4.60;;;;;;;16.24;65.55;101502.31;5082253;28;20205;-60
2023/09/05 00:56:55;;;;;;;12.18;5.90;;;;;;;16.25;65.93;101500.56;5083648;28;20209;-63
2023/09/05 00:59:23;;;;;;;10.98;5.25;;;;;;;16.24;65.62;101502.31;5091679;28;20214;-58
2023/09/05 01:01:51;;;;;;;13.65;5.03;;;;;;;16.24;66.06;101502.31;5086950;28;20209;-60
2023/09/05 01:04:19;;;;;;;10.38;4.72;;;;;;;16.23;66.34;101497.97;5086496;28;20208;-57
2023/09/05 01:07:01;;;;;;;11.82;5.47;;;;;;;16.21;66.24;101504.94;5090615;28;20250;-60
2023/09/05 01:09:38;;;;;;;7.78;5.15;;;;;;;16.19;66.57;101504.09;5086527;28;20213;-59
2023/09/05 01:12:08;;;;;;;7.63;4.88;;;;;;;16.15;66.10;101495.44;5081988;28;20203;-60
2023/09/05 01:14:36;;;;;;;9.68;5.10;;;;;;;16.15;66.45;101497.19;5085434;28;20572;-60
2023/09/05 01:17:05;;;;;;;7.03;4.43;;;;;;;16.14;65.95;101498.09;5073571;22;20241;-67
2023/09/05 01:19:35;;;;;;;7.28;4.57;;;;;;;16.14;65.90;101492.88;5027637;28;20206;-60
2023/09/05 01:22:16;;;;;;;9.20;5.18;;;;;;;16.13;66.12;101493.78;5028043;28;20524;-61
2023/09/05 01:24:47;;;;;;;11.38;4.60;;;;;;;16.13;65.75;101493.78;5029049;28;20206;-60
2023/09/05 01:27:17;;;;;;;10.05;4.68;;;;;;;16.13;65.63;101489.44;5028390;28;20560;-60
2023/09/05 01:29:46;;;;;;;7.38;4.90;;;;;;;16.13;65.63;101493.78;5027639;28;20218;-60
2023/09/05 01:32:14;;;;;;;7.47;4.57;;;;;;;16.10;66.02;101489.47;5027633;28;20214;-60
2023/09/05 01:34:43;;;;;;;6.85;4.70;;;;;;;16.10;66.02;101497.25;5028963;28;20636;-58
2023/09/05 01:37:14;;;;;;;6.55;4.90;;;;;;;16.11;65.93;101504.16;5024096;28;20246;-61
2023/09/05 01:39:42;;;;;;;8.82;4.75;;;;;;;16.12;65.94;101505.03;5026899;28;20211;-61
2023/09/05 01:42:12;;;;;;;8.73;5.00;;;;;;;16.06;65.88;101500.78;5030415;28;20688;-61
2023/09/05 01:44:39;;;;;;;8.15;4.88;;;;;;;16.04;65.07;101504.25;5030072;28;20221;-59
2023/09/05 01:47:07;;;;;;;7.57;4.57;;;;;;;16.03;65.09;101503.41;5027175;28;20405;-59
2023/09/05 01:49:35;;;;;;;7.75;4.78;;;;;;;16.05;64.93;101505.97;5028982;28;20202;-61
2023/09/05 01:52:04;;;;;;;10.65;5.60;;;;;;;16.05;64.46;101505.97;5031045;28;20209;-60
2023/09/05 01:54:32;;;;;;;8.63;4.85;;;;;;;16.05;64.29;101503.38;5030120;28;20206;-60
2023/09/05 01:56:59;;;;;;;6.57;4.50;;;;;;;16.08;64.78;101498.13;5029137;28;20231;-61
2023/09/05 01:59:29;;;;;;;6.80;4.75;;;;;;;16.10;65.15;101493.81;5029538;28;20298;-62
2023/09/05 02:01:57;;;;;;;7.05;4.57;;;;;;;16.10;64.79;101488.59;5026541;28;20669;-61
2023/09/05 02:04:24;;;;;;;7.63;4.38;;;;;;;16.11;64.83;101492.91;5029973;28;20210;-60
2023/09/05 02:06:52;;;;;;;9.48;4.80;;;;;;;16.10;65.24;101494.66;5025227;28;20202;-62
2023/09/05 02:09:20;;;;;;;13.00;5.05;;;;;;;16.07;66.01;101493.81;5027741;28;20573;-60
2023/09/05 02:11:48;;;;;;;11.15;4.85;;;;;;;16.05;66.15;101496.44;5028888;28;20206;-59
2023/09/05 02:14:16;;;;;;;8.20;5.15;;;;;;;16.04;66.37;101488.66;5026881;28;20210;-59
2023/09/05 02:16:45;;;;;;;9.00;4.85;;;;;;;16.06;66.14;101492.97;5024518;28;20676;-62
2023/09/05 02:19:13;;;;;;;6.68;4.78;;;;;;;16.08;66.40;101490.34;5025416;28;20691;-61
2023/09/05 02:21:41;;;;;;;9.25;5.13;;;;;;;16.07;65.78;101489.47;5027026;28;20293;-60
2023/09/05 02:24:09;;;;;;;11.52;5.30;;;;;;;16.09;65.55;101492.06;5027423;28;20616;-61
2023/09/05 02:26:37;;;;;;;7.43;4.82;;;;;;;16.11;65.92;101490.31;5028437;28;20653;-59
2023/09/05 02:29:06;;;;;;;8.02;4.70;;;;;;;16.10;65.07;101479.06;5026524;28;20211;-60
2023/09/05 02:31:34;;;;;;;9.10;4.88;;;;;;;16.12;64.89;101476.41;5029294;28;20234;-59
2023/09/05 02:34:03;;;;;;;12.35;5.18;;;;;;;16.11;64.69;101474.72;5026308;28;20209;-58
2023/09/05 02:36:31;;;;;;;9.88;4.75;;;;;;;16.11;64.11;101477.31;5027919;28;20689;-60
2023/09/05 02:39:00;;;;;;;9.95;4.47;;;;;;;16.09;63.50;101473.84;5027518;28;20206;-60
2023/09/05 02:41:28;;;;;;;7.30;4.90;;;;;;;16.06;63.16;101476.50;5027714;28;20647;-61
2023/09/05 02:43:56;;;;;;;8.80;4.78;;;;;;;16.06;63.77;101471.31;5028239;28;20253;-59
2023/09/05 02:46:24;;;;;;;7.45;4.10;;;;;;;16.04;63.49;101465.25;5023287;28;20199;-59
2023/09/05 02:48:52;;;;;;;6.85;4.28;;;;;;;16.04;63.49;101483.47;5026625;28;20534;-60
2023/09/05 02:51:21;;;;;;;7.15;4.93;;;;;;;16.05;63.90;101479.97;5024657;28;20214;-61
2023/09/05 02:53:49;;;;;;;8.50;4.50;;;;;;;16.08;64.02;101479.94;5027375;28;20276;-60
2023/09/05 02:56:18;;;;;;;6.25;4.10;;;;;;;16.08;63.98;101485.13;5028793;28;20203;-59
2023/09/05 02:58:46;;;;;;;9.23;4.50;;;;;;;16.08;64.00;101491.19;5027655;28;20207;-59
2023/09/05 03:01:14;;;;;;;4.90;4.32;;;;;;;16.06;63.89;101482.56;5029584;28;20207;-61
2023/09/05 03:03:42;;;;;;;7.13;4.40;;;;;;;16.02;63.96;101480.88;5028809;28;20210;-59
2023/09/05 03:06:11;;;;;;;8.80;4.88;;;;;;;16.00;64.43;101489.56;5024851;28;20211;-60
2023/09/05 03:08:42;;;;;;;10.02;4.38;;;;;;;15.98;64.70;101489.59;5029317;28;20198;-60
2023/09/05 03:11:10;;;;;;;7.15;4.30;;;;;;;15.94;63.54;101487.88;5026147;28;20203;-60
2023/09/05 03:13:38;;;;;;;7.03;4.40;;;;;;;15.93;63.55;101492.22;5026781;28;20249;-60
2023/09/05 03:16:06;;;;;;;7.15;4.70;;;;;;;15.92;64.14;101485.31;5028599;28;20233;-59
2023/09/05 03:18:34;;;;;;;8.27;4.90;;;;;;;15.93;64.88;101491.38;5026791;28;20239;-61
2023/09/05 03:21:02;;;;;;;6.68;4.45;;;;;;;15.91;65.14;101483.59;5026769;28;20212;-61
2023/09/05 03:23:30;;;;;;;6.50;4.40;;;;;;;15.90;64.54;101492.25;5028398;28;20687;-60
2023/09/05 03:26:00;;;;;;;5.30;3.72;;;;;;;15.89;63.55;101489.69;5029304;28;20203;-60
2023/09/05 03:28:39;;;;;;;4.65;3.58;;;;;;;15.86;63.28;101487.97;5029692;28;20203;-59
2023/09/05 03:31:07;;;;;;;4.45;3.15;;;;;;;15.85;62.63;101488.00;5029354;28;20230;-59
2023/09/05 03:33:35;;;;;;;9.43;4.65;;;;;;;15.87;63.23;101494.91;5032550;28;20302;-60
2023/09/05 03:36:05;;;;;;;6.28;3.80;;;;;;;15.88;63.13;101494.03;5028266;28;20199;-61
2023/09/05 03:38:33;;;;;;;6.10;3.70;;;;;;;15.89;62.44;101497.47;5032217;28;20237;-59
2023/09/05 03:41:02;;;;;;;7.67;4.20;;;;;;;15.91;62.74;101487.94;5029441;28;20661;-60
2023/09/05 03:43:30;;;;;;;5.70;4.22;;;;;;;15.93;62.59;101487.03;5030851;28;20708;-60
2023/09/05 03:45:58;;;;;;;4.93;3.70;;;;;;;15.93;63.21;101491.38;5029746;28;20206;-61
2023/09/05 03:48:26;;;;;;;9.27;4.85;;;;;;;15.92;63.24;101500.91;5031143;28;20194;-60
2023/09/05 03:50:54;;;;;;;12.15;4.70;;;;;;;15.90;63.73;101501.78;5030717;28;20207;-60
2023/09/05 03:53:22;;;;;;;8.55;4.07;;;;;;;15.90;63.25;101502.66;5030590;28;20657;-61
2023/09/05 03:55:50;;;;;;;6.63;4.70;;;;;;;15.92;63.29;101515.66;5026565;28;20208;-60
2023/09/05 03:58:19;;;;;;;5.67;3.57;;;;;;;15.90;62.39;101512.19;5029494;28;20226;-60
2023/09/05 04:00:47;;;;;;;6.22;4.10;;;;;;;15.90;62.11;101513.03;5031872;28;20211;-59
2023/09/05 04:03:16;;;;;;;6.70;4.45;;;;;;;15.91;62.66;101503.53;5032231;28;20229;-60
2023/09/05 04:05:44;;;;;;;7.25;4.95;;;;;;;15.93;63.30;101507.81;5031117;28;20586;-62
2023/09/05 04:08:12;;;;;;;5.83;3.80;;;;;;;15.94;63.41;101506.06;5028660;28;20206;-60
2023/09/05 04:10:40;;;;;;;7.63;4.82;;;;;;;15.96;63.43;101508.69;5029705;28;20241;-62
2023/09/05 04:13:08;;;;;;;5.83;4.03;;;;;;;15.96;63.28;101511.28;5026713;28;20206;-61
2023/09/05 04:15:38;;;;;;;11.05;4.85;;;;;;;15.95;63.84;101515.63;5028990;28;20209;-61
2023/09/05 04:18:06;;;;;;;6.28;4.40;;;;;;;15.96;64.23;101512.13;5024348;28;20239;-59
2023/09/05 04:20:34;;;;;;;6.32;4.40;;;;;;;15.96;64.04;101516.47;5031213;28;20209;-61
2023/09/05 04:23:02;;;;;;;9.73;4.70;;;;;;;15.95;64.35;101518.22;5032039;28;20569;-60
2023/09/05 04:25:29;;;;;;;7.80;4.90;;;;;;;15.92;64.76;101516.50;5031412;28;20667;-61
2023/09/05 04:27:57;;;;;;;7.32;4.10;;;;;;;15.95;64.67;101526.03;5028638;28;20225;-60
2023/09/05 04:30:25;;;;;;;8.02;4.75;;;;;;;15.96;65.09;101521.69;5028072;28;20211;-61
2023/09/05 04:32:55;;;;;;;9.88;3.60;;;;;;;15.98;64.62;101520.78;5029493;28;20948;-59
2023/09/05 04:35:23;;;;;;;8.25;4.28;;;;;;;16.01;64.52;101517.28;5030302;28;20734;-59
2023/09/05 04:37:52;;;;;;;8.13;4.22;;;;;;;16.02;64.24;101517.28;5029421;28;20261;-62
2023/09/05 04:40:20;;;;;;;7.75;4.57;;;;;;;16.03;64.05;101516.41;5030016;28;20214;-59
2023/09/05 04:42:48;;;;;;;5.80;4.68;;;;;;;16.06;63.94;101516.38;5028820;28;20198;-61
2023/09/05 04:45:16;;;;;;;7.30;3.90;;;;;;;16.14;63.10;101513.69;5027838;28;20212;-61
2023/09/05 04:47:44;;;;;;;7.72;3.67;;;;;;;16.26;62.34;101516.13;5029808;28;20195;-60
2023/09/05 04:50:14;;;;;;;5.88;3.95;;;;;;;16.39;62.01;101509.94;5028943;28;20261;-61
2023/09/05 04:52:42;;;;;;;5.57;3.47;;;;;;;16.52;61.33;101504.56;5028480;28;20317;-63
2023/09/05 04:55:10;;;;;;;7.65;4.70;;;;;;;16.64;61.02;101496.59;5030539;28;20290;-61
2023/09/05 04:57:42;;;;;;;8.75;4.13;;;;;;;16.78;60.57;101514.66;5027206;28;20219;-60
2023/09/05 05:00:13;;;;;;;6.45;3.65;;;;;;;16.85;58.98;101503.28;5026805;28;20602;-61
2023/09/05 05:02:41;;;;;;;6.80;3.78;;;;;;;16.91;57.90;101505.81;5027046;28;20564;-59
2023/09/05 05:05:11;;;;;;;9.05;4.38;;;;;;;16.98;57.77;101506.59;5031211;28;20199;-61
2023/09/05 05:07:41;;;;;;;7.57;4.00;;;;;;;17.06;57.58;101504.72;5030871;28;20234;-60
2023/09/05 05:10:10;;;;;;;9.00;4.22;;;;;;;17.15;57.39;101504.56;5026278;28;20229;-59
2023/09/05 05:12:38;;;;;;;8.55;3.60;;;;;;;17.22;57.05;101495.78;5030223;28;20203;-64
2023/09/05 05:15:06;;;;;;;9.98;4.10;;;;;;;17.24;56.76;101498.38;5029777;28;20202;-61
2023/09/05 05:17:34;;;;;;;9.30;4.60;;;;;;;17.24;56.73;101498.38;5024942;28;20261;-66
2023/09/05 05:20:05;;;;;;;11.40;4.35;;;;;;;17.22;56.74;101495.78;5030524;28;20202;-61
2023/09/05 05:22:33;;;;;;;10.95;4.10;;;;;;;17.23;56.75;101502.72;5030747;28;20206;-61
2023/09/05 05:25:02;;;;;;;9.55;4.20;;;;;;;17.25;56.79;101500.09;5031039;28;20202;-60
2023/09/05 05:27:30;;;;;;;8.48;4.78;;;;;;;17.28;56.83;101508.72;5021087;28;20221;-61
2023/09/05 05:29:59;;;;;;;7.63;4.72;;;;;;;17.30;56.72;101517.34;5029773;28;20242;-62
2023/09/05 05:32:28;;;;;;;6.50;4.20;;;;;;;17.33;56.68;101511.22;5031498;28;20206;-61
2023/09/05 05:34:56;;;;;;;11.77;4.28;;;;;;;17.29;56.87;101506.97;5032235;28;20637;-62
2023/09/05 05:37:24;;;;;;;9.63;5.35;;;;;;;17.27;57.05;101503.50;5032318;28;20257;-61
2023/09/05 05:39:53;;;;;;;9.73;4.90;;;;;;;17.28;57.10;101508.72;5025704;28;20549;-63
2023/09/05 05:42:22;;;;;;;8.48;4.68;;;;;;;17.26;57.19;101500.03;5026121;28;20221;-61
2023/09/05 05:44:50;;;;;;;7.90;4.80;;;;;;;17.29;57.36;101504.34;5033258;28;20203;-62
2023/09/05 05:47:18;;;;;;;7.45;4.57;;;;;;;17.33;57.62;101511.22;5028906;28;20285;-63
2023/09/05 05:49:45;;;;;;;11.18;4.72;;;;;;;17.36;57.24;101509.44;5027277;28;20617;-61
2023/09/05 05:52:13;;;;;;;8.75;4.68;;;;;;;17.39;57.26;101519.81;5026927;28;20203;-61
2023/09/05 05:54:42;;;;;;;8.45;4.28;;;;;;;17.42;57.06;101518.06;5029295;28;20198;-62
2023/09/05 05:57:10;;;;;;;7.20;4.72;;;;;;;17.43;56.67;101514.56;5021496;28;20211;-62
2023/09/05 05:59:40;;;;;;;9.57;4.63;;;;;;;17.46;56.95;101514.53;5020756;28;20211;-60
2023/09/05 06:02:08;;;;;;;4.90;3.85;;;;;;;17.51;56.74;101520.50;5020191;28;20222;-61
2023/09/05 06:04:36;;;;;;;5.35;3.92;;;;;;;17.54;56.53;101516.09;5023485;28;20214;-61
2023/09/05 06:07:04;;;;;;;10.57;4.78;;;;;;;17.59;56.63;101516.00;5022780;28;20712;-61
2023/09/05 06:09:32;;;;;;;8.68;4.65;;;;;;;17.65;56.41;101517.66;5026011;28;20195;-60
2023/09/05 06:12:00;;;;;;;7.90;4.53;;;;;;;17.69;56.18;101508.91;5022382;28;20207;-60
2023/09/05 06:14:27;;;;;;;7.85;4.47;;;;;;;17.76;56.23;101506.19;5027371;28;20205;-63
2023/09/05 06:16:57;;;;;;;12.70;4.22;;;;;;;17.91;56.11;101501.59;5029993;28;20206;-62
2023/09/05 06:19:25;;;;;;;11.32;4.60;;;;;;;18.05;55.55;101510.03;5030497;28;20754;-60
2023/09/05 06:21:53;;;;;;;8.52;4.15;;;;;;;18.29;55.25;101506.91;5030733;28;20265;-60
2023/09/05 06:24:20;;;;;;;9.95;4.03;;;;;;;18.68;54.20;101516.56;5031115;28;20206;-61
2023/09/05 06:26:48;;;;;;;9.27;3.70;;;;;;;19.13;52.60;101512.09;5041541;28;20199;-60
2023/09/05 06:29:16;;;;;;;9.38;3.75;;;;;;;19.58;51.55;101511.00;5033962;28;20256;-61
2023/09/05 06:31:44;;;;;;;8.07;3.83;;;;;;;20.09;50.66;101514.00;5024620;28;20298;-60
2023/09/05 06:34:14;;;;;;;9.75;3.90;;;;;;;20.56;48.87;101503.97;5030483;28;20623;-59
2023/09/05 06:36:42;;;;;;;9.77;4.07;;;;;;;20.95;47.48;101501.03;5024070;28;20211;-61
2023/09/05 06:39:11;;;;;;;14.68;4.15;;;;;;;21.28;46.36;101503.47;5030443;28;20257;-61
2023/09/05 06:41:41;;;;;;;11.40;3.63;;;;;;;21.60;45.35;101490.19;5027431;28;20210;-61
2023/09/05 06:44:09;;;;;;;8.27;3.60;;;;;;;21.89;44.41;101496.19;5024739;28;20289;-60
2023/09/05 06:46:37;;;;;;;6.82;3.47;;;;;;;22.18;43.85;101498.66;5023788;28;20680;-61
2023/09/05 06:49:05;;;;;;;7.30;3.38;;;;;;;22.60;43.02;101494.47;5025647;28;22951;-62
2023/09/05 06:51:34;;;;;;;7.63;3.28;;;;;;;23.19;41.87;101490.41;5028822;28;20206;-60
2023/09/05 06:54:02;;;;;;;8.55;3.70;;;;;;;23.93;40.67;101496.06;5028704;28;20218;-62
2023/09/05 06:56:30;;;;;;;12.70;3.40;;;;;;;24.75;38.22;101496.72;5029209;28;20261;-61
2023/09/05 06:58:58;;;;;;;7.65;3.63;;;;;;;25.87;37.21;101488.53;5024197;28;20251;-61
2023/09/05 07:01:29;;;;;;;11.05;2.97;;;;;;;27.41;34.61;101481.72;5024847;28;20563;-61
2023/09/05 07:03:57;;;;;;;7.50;3.00;;;;;;;28.84;30.96;101479.88;5026559;28;20667;-62
2023/09/05 07:06:25;;;;;;;7.18;3.17;;;;;;;30.33;28.84;101486.53;5029684;28;20621;-61
2023/09/05 07:08:54;;;;;;;7.10;3.45;;;;;;;32.03;26.42;101478.22;5028388;28;20257;-65
2023/09/05 07:11:22;;;;;;;5.35;3.28;;;;;;;33.46;24.28;101478.03;5021791;28;20203;-66
2023/09/05 07:13:50;;;;;;;6.55;2.95;;;;;;;34.82;22.56;101478.56;5033028;28;20242;-67
2023/09/05 07:16:18;;;;;;;5.20;3.08;;;;;;;35.87;21.58;101475.88;5031989;28;20261;-66
2023/09/05 07:18:46;;;;;;;10.00;3.15;;;;;;;36.98;20.05;101476.66;5033093;28;20655;-66
2023/09/05 07:21:15;;;;;;;5.15;3.13;;;;;;;37.93;19.60;101470.41;5033693;28;20306;-66
2023/09/05 07:23:42;;;;;;;8.93;2.90;;;;;;;38.56;18.46;101482.56;5033427;28;20206;-65
2023/09/05 07:26:12;;;;;;;7.10;3.25;;;;;;;39.11;16.36;101491.88;5032186;28;20320;-66
2023/09/05 07:28:40;;;;;;;5.57;2.60;;;;;;;39.42;17.22;101485.78;5025971;28;20668;-67
2023/09/05 07:31:09;;;;;;;5.28;2.38;;;;;;;39.50;16.58;101488.47;5030371;28;20202;-67
2023/09/05 07:33:37;;;;;;;4.63;2.10;;;;;;;39.46;15.92;101489.81;5025650;28;20210;-66
2023/09/05 07:36:05;;;;;;;4.28;2.17;;;;;;;39.54;15.63;101487.09;5028194;28;20675;-65
2023/09/05 07:38:33;;;;;;;6.40;2.30;;;;;;;39.69;16.03;101493.50;5033571;28;20639;-67
2023/09/05 07:41:02;;;;;;;4.97;2.42;;;;;;;39.90;15.17;101489.38;5033881;28;20222;-67
2023/09/05 07:43:32;;;;;;;5.18;2.55;;;;;;;40.42;14.93;101489.63;5032418;28;20550;-66
2023/09/05 07:46:00;;;;;;;4.45;1.80;;;;;;;40.76;14.28;101483.88;5031831;28;20726;-68
2023/09/05 07:48:28;;;;;;;4.57;2.58;;;;;;;40.36;14.31;101495.78;5031756;28;20534;-66
2023/09/05 07:51:04;;;;;;;4.75;2.20;;;;;;;39.99;14.88;101491.00;5031341;28;20201;-66
2023/09/05 07:53:32;;;;;;;3.88;2.40;;;;;;;40.03;14.75;101486.97;5032822;28;20675;-65
2023/09/05 07:56:00;;;;;;;8.10;3.15;;;;;;;40.27;15.09;101502.22;5035825;28;20289;-66
2023/09/05 07:58:29;;;;;;;5.40;2.80;;;;;;;40.73;14.22;101491.50;5032445;28;20675;-66
2023/09/05 08:00:58;;;;;;;6.18;2.33;;;;;;;40.70;14.32;101492.69;5031981;28;20222;-66
2023/09/05 08:03:26;;;;;;;3.83;2.30;;;;;;;41.23;13.98;101493.59;5032313;28;20202;-66
2023/09/05 08:05:54;;;;;;;4.85;2.60;;;;;;;41.72;13.55;101492.25;5031820;28;20209;-67
2023/09/05 08:08:23;;;;;;;5.60;2.80;;;;;;;41.60;13.72;101494.59;5039708;28;20216;-67
2023/09/05 08:10:52;;;;;;;6.68;2.53;;;;;;;41.55;13.58;101497.03;5033602;28;20758;-67
2023/09/05 08:13:20;;;;;;;5.80;2.47;;;;;;;41.38;13.45;101490.91;5029984;28;20813;-66
2023/09/05 08:15:48;;;;;;;4.82;2.38;;;;;;;41.59;13.80;101492.91;5025295;28;20255;-65
2023/09/05 08:18:17;;;;;;;5.43;2.38;;;;;;;41.67;13.84;101494.69;5033410;28;20244;-60
2023/09/05 08:20:46;;;;;;;4.18;2.30;;;;;;;42.10;13.56;101490.28;5032264;28;20681;-59
2023/09/05 08:23:14;;;;;;;8.35;2.53;;;;;;;42.27;13.46;101490.06;5030791;28;20194;-61
2023/09/05 08:25:42;;;;;;;8.32;3.03;;;;;;;42.41;13.33;101489.19;5030196;28;20309;-61
2023/09/05 08:28:10;;;;;;;6.72;2.75;;;;;;;41.78;13.61;101491.50;5031761;28;20194;-60
2023/09/05 08:30:38;;;;;;;6.35;3.13;;;;;;;41.53;13.97;101485.53;5030097;28;20208;-59
2023/09/05 08:33:06;;;;;;;5.03;2.58;;;;;;;41.80;13.70;101488.63;5031272;28;20244;-59
2023/09/05 08:35:37;;;;;;;4.20;2.28;;;;;;;42.06;13.33;101488.16;5038043;28;20209;-60
2023/09/05 08:38:06;;;;;;;6.85;2.40;;;;;;;42.19;12.97;101491.84;5029007;28;20292;-60
2023/09/05 08:40:34;;;;;;;9.63;2.35;;;;;;;42.36;12.76;101491.66;5028764;28;20559;-60
2023/09/05 08:43:02;;;;;;;4.03;2.17;;;;;;;42.42;12.90;101493.56;5030266;28;20209;-59
2023/09/05 08:45:32;;;;;;;3.97;2.58;;;;;;;42.77;12.48;101486.44;5033139;28;20229;-59
2023/09/05 08:48:00;;;;;;;4.05;2.35;;;;;;;42.59;12.00;101488.75;5029732;28;21231;-60
2023/09/05 08:50:31;;;;;;;3.85;2.40;;;;;;;42.47;12.92;101483.00;5022604;28;20317;-59
2023/09/05 08:53:10;;;;;;;3.38;2.00;;;;;;;42.29;12.96;101478.03;5031027;28;20210;-60
2023/09/05 08:55:41;;;;;;;5.07;2.10;;;;;;;41.67;13.00;101482.00;5034014;28;20209;-60
2023/09/05 08:58:14;;;;;;;4.18;2.25;;;;;;;41.35;13.08;101479.63;5029268;28;20213;-60
2023/09/05 09:00:44;;;;;;;2.90;2.25;;;;;;;41.11;13.49;101480.72;5024271;28;20256;-62
2023/09/05 09:03:12;;;;;;;7.30;2.63;;;;;;;40.63;13.36;101486.31;5030380;28;20260;-59
2023/09/05 09:05:41;;;;;;;4.07;2.00;;;;;;;39.89;14.32;101482.31;5034817;28;20208;-59
2023/09/05 09:08:11;;;;;;;1.92;1.42;;;;;;;39.25;14.99;101479.56;5030591;28;20214;-59
2023/09/05 09:10:40;;;;;;;4.13;2.28;;;;;;;38.22;15.53;101479.91;5030564;28;20272;-59
2023/09/05 09:13:15;;;;;;;2.08;1.83;;;;;;;36.91;16.82;101481.75;5025502;28;20210;-61
2023/09/05 09:15:46;;;;;;;3.08;2.08;;;;;;;35.99;17.26;101477.41;5029841;28;20213;-58
2023/09/05 09:18:17;;;;;;;5.00;1.88;;;;;;;35.33;17.89;101485.47;5030426;28;20236;-60
2023/09/05 09:20:50;;;;;;;4.30;2.20;;;;;;;34.76;18.93;101489.81;5030082;28;20736;-59
2023/09/05 09:23:27;;;;;;;3.72;2.20;;;;;;;34.08;20.00;101477.13;5028005;28;20212;-59
2023/09/05 09:25:57;;;;;;;4.90;2.20;;;;;;;33.46;20.64;101486.06;5031245;28;20552;-61
2023/09/05 09:28:28;;;;;;;5.72;2.85;;;;;;;32.72;22.09;101494.88;5028417;28;20197;-68
2023/09/05 09:30:57;;;;;;;3.15;2.20;;;;;;;32.26;21.87;101481.75;5031472;28;20688;-68
2023/09/05 09:33:26;;;;;;;4.75;2.40;;;;;;;31.68;22.30;101478.31;5032103;28;20649;-68
2023/09/05 09:36:06;;;;;;;4.43;2.17;;;;;;;31.28;23.30;101490.19;5029701;28;20210;-68
2023/09/05 09:38:36;;;;;;;5.65;2.20;;;;;;;30.80;23.54;101484.06;5031143;28;20656;-69
2023/09/05 09:41:06;;;;;;;5.40;2.10;;;;;;;30.48;24.53;101484.56;5029772;28;20194;-68
2023/09/05 09:43:36;;;;;;;4.18;2.00;;;;;;;30.00;25.39;101476.47;5028479;28;20210;-66
2023/09/05 09:46:05;;;;;;;3.75;2.35;;;;;;;29.69;26.35;101482.25;5029634;28;20645;-67
2023/09/05 09:48:35;;;;;;;5.00;2.30;;;;;;;29.54;25.79;101471.69;5030697;28;20211;-66
2023/09/05 09:51:05;;;;;;;5.30;2.70;;;;;;;29.33;26.05;101474.00;5023779;28;20296;-66
2023/09/05 09:53:39;;;;;;;6.80;2.20;;;;;;;29.08;26.43;101485.41;5024231;28;20234;-66
2023/09/05 09:56:10;;;;;;;5.68;2.60;;;;;;;28.91;26.78;101471.53;5029887;28;20206;-69
2023/09/05 09:58:41;;;;;;;3.67;2.30;;;;;;;28.78;26.63;101467.00;5038774;28;20926;-68
2023/09/05 10:01:11;;;;;;;3.50;2.60;;;;;;;28.57;27.24;101471.06;5030109;28;20553;-67
2023/09/05 10:03:40;;;;;;;3.55;2.15;;;;;;;28.60;26.88;101460.25;5033354;28;20213;-68
2023/09/05 10:06:10;;;;;;;4.35;2.00;;;;;;;28.92;26.57;101452.84;5038209;28;20202;-65
2023/09/05 10:08:40;;;;;;;4.28;2.28;;;;;;;29.41;26.86;101446.91;5031843;28;20646;-67
2023/09/05 10:11:15;;;;;;;2.85;2.00;;;;;;;29.99;26.09;101439.38;5029027;28;20217;-69
2023/09/05 10:13:45;;;;;;;4.15;2.28;;;;;;;30.61;25.30;101436.66;5035473;28;20413;-66
2023/09/05 10:16:14;;;;;;;3.30;2.30;;;;;;;31.09;24.76;101441.97;5034601;28;20199;-67
2023/09/05 10:18:45;;;;;;;6.47;2.60;;;;;;;31.35;24.02;101424.00;5028469;28;20243;-67
2023/09/05 10:21:16;;;;;;;7.40;2.60;;;;;;;31.66;23.82;101429.59;5025572;28;20673;-68
2023/09/05 10:23:46;;;;;;;4.32;2.80;;;;;;;32.41;22.91;101431.66;5029204;28;20272;-67
2023/09/05 10:26:15;;;;;;;7.40;3.05;;;;;;;33.14;22.21;101427.34;5028780;28;20202;-67
2023/09/05 10:28:43;;;;;;;6.95;2.53;;;;;;;33.66;21.64;101415.72;5028611;28;20210;-67
2023/09/05 10:31:13;;;;;;;5.35;2.85;;;;;;;34.21;20.65;101419.84;5028734;28;20214;-67
2023/09/05 10:33:45;;;;;;;5.35;2.20;;;;;;;34.42;20.71;101409.88;5030256;28;20264;-67
2023/09/05 10:36:39;;;;;;;2.92;2.08;;;;;;;34.42;20.36;101417.91;5029611;28;20660;-70
2023/09/05 10:39:22;;;;;;;6.72;2.63;;;;;;;34.52;20.42;101416.13;5029683;28;20285;-60
2023/09/05 10:41:51;;;;;;;4.78;2.40;;;;;;;34.74;19.67;101411.47;5029720;28;20198;-61
2023/09/05 10:44:19;;;;;;;4.65;2.40;;;;;;;34.75;19.20;101408.66;5033483;28;20210;-63
2023/09/05 10:46:52;;;;;;;3.45;2.50;;;;;;;34.08;19.61;101410.25;5031717;28;20233;-60
2023/09/05 10:49:20;;;;;;;5.38;2.78;;;;;;;33.51;20.77;101403.72;5032598;28;20233;-61
2023/09/05 10:52:19;;;;;;;4.15;2.10;;;;;;;33.12;21.54;101400.78;5032803;28;20301;-59
2023/09/05 10:54:49;;;;;;;4.00;2.38;;;;;;;33.19;22.54;101401.94;5032604;28;20651;-60
2023/09/05 10:57:39;;;;;;;3.65;2.55;;;;;;;33.27;20.78;101397.78;5032886;28;20675;-60
2023/09/05 11:00:35;;;;;;;5.55;2.25;;;;;;;32.61;22.03;101396.16;5031314;28;20210;-62
2023/09/05 11:03:12;;;;;;;3.85;2.38;;;;;;;31.92;22.64;101404.41;5032713;28;20245;-59
2023/09/05 11:05:50;;;;;;;5.18;2.58;;;;;;;31.51;24.24;101397.88;5032381;28;20213;-60
2023/09/05 11:08:22;;;;;;;4.63;2.50;;;;;;;31.32;24.65;101389.63;5033331;28;20195;-60
2023/09/05 11:10:53;;;;;;;4.15;2.30;;;;;;;31.24;24.61;101382.19;5032017;28;20629;-59
2023/09/05 11:13:21;;;;;;;5.03;2.33;;;;;;;31.17;24.58;101382.78;5034735;28;20214;-60
2023/09/05 11:15:58;;;;;;;3.42;2.22;;;;;;;31.23;24.71;101375.19;5035128;28;20781;-61
2023/09/05 11:18:26;;;;;;;4.88;2.40;;;;;;;31.34;24.97;101370.88;4985979;28;1115191;-59
2023/09/05 11:20:54;;;;;;;4.22;2.22;;;;;;;31.36;24.20;101368.91;5032578;28;20238;-62
2023/09/05 11:23:25;;;;;;;4.93;2.40;;;;;;;31.17;24.13;101372.97;5034083;28;20206;-59
2023/09/05 11:26:00;;;;;;;5.13;2.63;;;;;;;30.94;24.05;101368.59;5031517;28;20210;-59
2023/09/05 11:28:28;;;;;;;4.47;2.05;;;;;;;30.67;24.08;101369.69;5031147;28;20209;-59
2023/09/05 11:31:02;;;;;;;7.60;2.45;;;;;;;30.31;24.44;101360.81;5040079;28;20203;-64
2023/09/05 11:33:34;;;;;;;7.43;2.58;;;;;;;29.67;24.81;101365.44;5024984;28;20305;-60
2023/09/05 11:36:06;;;;;;;7.20;2.17;;;;;;;29.29;25.13;101365.44;5032382;28;20249;-60